Time;durP1;ratioP1;P1;durP2;ratioP2;P2;SDS_P1;SDS_P2;PMS_P1;PMS_P2;Temp;Humidity;BMP_temperature;BMP_pressure;BME280_temperature;BME280_humidity;BME280_pressure;Samples;Min_cycle;Max_cycle;Signal;HPM_P1;HPM_P2
2023/03/12 00:01:19;;;;;;;2.40;1.30;;;;;;;3.64;51.62;99641.77;107492;1254;108033;-65
2023/03/12 00:03:48;;;;;;;2.40;1.30;;;;;;;3.58;51.70;99648.80;107448;1254;99190;-65
2023/03/12 00:06:18;;;;;;;2.20;1.50;;;;;;;3.53;52.20;99657.70;107490;1254;99188;-64
2023/03/12 00:08:47;;;;;;;2.10;1.40;;;;;;;3.49;52.24;99662.40;107462;1254;113844;-64
2023/03/12 00:11:18;;;;;;;2.10;1.20;;;;;;;3.49;52.79;99659.42;107502;1254;109076;-64
2023/03/12 00:13:55;;;;;;;1.50;1.20;;;;;;;3.48;53.03;99670.11;107436;1254;108258;-64
2023/03/12 00:16:24;;;;;;;5.90;1.60;;;;;;;3.44;53.21;99677.45;107436;1254;99163;-64
2023/03/12 00:18:54;;;;;;;4.00;1.90;;;;;;;3.41;53.42;99671.86;107456;1254;99137;-65
2023/03/12 00:21:23;;;;;;;5.30;1.50;;;;;;;3.35;53.37;99678.70;107460;1254;113671;-64
2023/03/12 00:23:52;;;;;;;2.60;1.80;;;;;;;3.25;53.33;99687.94;107451;1254;109797;-65
2023/03/12 00:26:21;;;;;;;4.20;2.70;;;;;;;3.16;53.61;99694.16;107443;1254;108493;-63
2023/03/12 00:28:50;;;;;;;2.80;1.80;;;;;;;3.08;53.71;99695.92;107415;1254;99175;-65
2023/03/12 00:31:28;;;;;;;4.20;1.70;;;;;;;3.04;53.95;99700.89;107389;1254;99716;-65
2023/03/12 00:33:58;;;;;;;2.20;1.90;;;;;;;3.02;54.24;99707.54;107444;1254;111578;-64
2023/03/12 00:36:30;;;;;;;4.10;1.90;;;;;;;3.00;54.25;99713.39;107431;1254;110218;-65
2023/03/12 00:39:00;;;;;;;2.30;1.60;;;;;;;2.94;54.35;99720.73;107415;1254;107690;-65
2023/03/12 00:41:29;;;;;;;6.70;2.20;;;;;;;2.89;54.57;99718.12;107415;1254;99172;-64
2023/03/12 00:43:58;;;;;;;3.00;2.00;;;;;;;2.86;54.73;99728.77;107503;1254;99137;-66
2023/03/12 00:46:26;;;;;;;3.50;2.40;;;;;;;2.85;54.88;99731.63;107410;1254;113178;-66
2023/03/12 00:48:55;;;;;;;3.10;1.90;;;;;;;2.85;54.88;99740.55;107475;1254;109949;-65
2023/03/12 00:51:23;;;;;;;5.00;2.10;;;;;;;2.82;54.83;99753.30;107504;1254;108752;-65
2023/03/12 00:53:52;;;;;;;9.20;1.90;;;;;;;2.79;54.58;99763.95;107488;1254;100632;-66
2023/03/12 00:56:21;;;;;;;4.20;2.00;;;;;;;2.76;54.67;99760.43;107406;1254;99812;-65
2023/03/12 00:58:49;;;;;;;3.80;2.30;;;;;;;2.76;54.30;99774.60;107248;1254;113394;-65
2023/03/12 01:01:18;;;;;;;2.20;2.00;;;;;;;2.78;54.44;99778.89;107445;1254;109877;-66
2023/03/12 01:03:47;;;;;;;3.10;2.30;;;;;;;2.78;54.29;99784.35;107497;1254;106998;-64
2023/03/12 01:06:17;;;;;;;3.90;2.10;;;;;;;2.75;54.25;99794.52;107529;1254;99061;-65
2023/03/12 01:08:45;;;;;;;6.10;2.40;;;;;;;2.74;54.43;99800.61;107508;1254;99156;-65
2023/03/12 01:11:16;;;;;;;15.40;2.10;;;;;;;2.75;54.49;99802.14;107489;1254;112747;-65
2023/03/12 01:13:45;;;;;;;12.30;2.40;;;;;;;2.78;54.57;99815.55;107440;1253;109805;-65
2023/03/12 01:16:13;;;;;;;4.80;2.00;;;;;;;2.79;54.51;99820.58;107418;1257;108567;-64
2023/03/12 01:18:42;;;;;;;6.70;2.60;;;;;;;2.75;54.63;99831.00;107409;1254;99166;-63
2023/03/12 01:21:10;;;;;;;4.20;2.20;;;;;;;2.69;54.72;99835.84;107518;1253;99502;-64
2023/03/12 01:23:39;;;;;;;7.60;2.60;;;;;;;2.63;54.81;99837.11;107467;1257;112946;-65
2023/03/12 01:26:07;;;;;;;6.60;2.50;;;;;;;2.57;54.98;99850.81;107404;1254;110324;-64
2023/03/12 01:28:36;;;;;;;4.30;2.70;;;;;;;2.55;54.99;99869.04;107459;1254;108269;-66
2023/03/12 01:31:13;;;;;;;7.50;2.70;;;;;;;2.49;55.15;99866.96;107425;1254;99163;-64
2023/03/12 01:33:42;;;;;;;8.10;2.30;;;;;;;2.49;55.23;99879.33;107473;1254;100858;-64
2023/03/12 01:36:18;;;;;;;6.70;2.50;;;;;;;2.46;54.99;99891.04;107459;1254;113181;-64
2023/03/12 01:38:50;;;;;;;5.10;2.30;;;;;;;2.42;55.09;99889.23;107445;1253;110149;-64
2023/03/12 01:41:20;;;;;;;5.30;2.70;;;;;;;2.41;55.06;99889.48;107430;1254;108616;-64
2023/03/12 01:43:49;;;;;;;3.90;2.30;;;;;;;2.43;54.94;99890.92;107481;1253;99821;-66
2023/03/12 01:46:23;;;;;;;5.30;2.00;;;;;;;2.40;54.88;99893.95;107475;1254;99701;-64
2023/03/12 01:49:08;;;;;;;8.90;2.60;;;;;;;2.31;55.02;99893.12;107463;1254;112069;-64
2023/03/12 01:51:58;;;;;;;6.30;2.50;;;;;;;2.26;55.07;99899.13;107493;1254;108837;-64
2023/03/12 01:54:38;;;;;;;6.70;2.90;;;;;;;2.26;55.15;99899.69;107444;1254;108060;-65
2023/03/12 01:57:17;;;;;;;6.70;2.60;;;;;;;2.23;55.31;99902.90;107446;1259;99291;-63
2023/03/12 01:59:53;;;;;;;8.60;3.10;;;;;;;2.18;55.47;99903.06;107425;1254;99787;-65
2023/03/12 02:02:27;;;;;;;6.30;2.70;;;;;;;2.14;55.65;99908.28;107274;1254;113094;-66
2023/03/12 02:05:05;;;;;;;3.50;2.60;;;;;;;2.14;55.91;99908.95;107378;1256;109840;-65
2023/03/12 02:07:34;;;;;;;6.40;2.50;;;;;;;2.15;55.76;99908.20;107397;1256;109507;-65
2023/03/12 02:10:04;;;;;;;8.50;2.70;;;;;;;2.13;55.87;99916.11;107380;1259;99295;-65
2023/03/12 02:12:32;;;;;;;9.80;2.80;;;;;;;2.11;56.06;99924.74;107272;1255;99069;-64
2023/03/12 02:15:01;;;;;;;4.90;3.10;;;;;;;2.09;56.20;99929.85;107267;1256;113461;-63
2023/03/12 02:17:30;;;;;;;5.30;3.50;;;;;;;2.01;56.23;99933.73;107129;1256;109882;-65
2023/03/12 02:20:21;;;;;;;5.10;3.10;;;;;;;1.93;56.34;99948.42;107249;1256;108738;-65
2023/03/12 02:23:08;;;;;;;5.00;2.60;;;;;;;1.81;56.79;99953.23;107418;1256;99282;-65
2023/03/12 02:25:45;;;;;;;3.90;2.60;;;;;;;1.73;56.89;99961.72;107421;1256;99068;-65
2023/03/12 02:28:15;;;;;;;4.00;2.80;;;;;;;1.69;57.21;99970.10;107428;1256;113196;-65
2023/03/12 02:30:49;;;;;;;4.20;2.60;;;;;;;1.64;57.27;99979.81;107402;1257;109455;-67
2023/03/12 02:33:17;;;;;;;13.00;3.00;;;;;;;1.58;57.50;99981.73;107261;1257;105756;-63
2023/03/12 02:35:47;;;;;;;10.30;3.50;;;;;;;1.58;57.43;99991.31;107254;1255;99256;-64
2023/03/12 02:38:46;;;;;;;3.30;2.40;;;;;;;1.55;57.55;100002.59;107309;1254;99858;-64
2023/03/12 02:41:21;;;;;;;7.10;2.70;;;;;;;1.53;57.45;100002.00;107453;1254;114725;-65
2023/03/12 02:43:57;;;;;;;3.00;2.50;;;;;;;1.54;57.34;100013.42;107407;1254;109634;-65
2023/03/12 02:46:29;;;;;;;4.00;2.70;;;;;;;1.57;57.19;100017.89;107405;1256;108513;-65
2023/03/12 02:48:58;;;;;;;4.20;2.70;;;;;;;1.59;57.11;100019.72;107377;1259;99175;-66
2023/03/12 02:51:26;;;;;;;4.40;2.60;;;;;;;1.61;56.75;100022.57;107398;1254;99749;-66
2023/03/12 02:53:55;;;;;;;3.40;2.50;;;;;;;1.61;56.62;100028.79;107431;1254;112994;-64
2023/03/12 02:56:26;;;;;;;5.30;2.30;;;;;;;1.60;56.32;100034.32;107370;1254;109598;-64
2023/03/12 02:58:55;;;;;;;9.90;3.40;;;;;;;1.60;56.26;100041.16;107425;1254;108403;-64
2023/03/12 03:01:25;;;;;;;4.20;2.20;;;;;;;1.58;56.03;100052.78;107449;1258;99194;-64
2023/03/12 03:03:54;;;;;;;3.90;2.70;;;;;;;1.56;55.91;100059.44;107507;1254;99093;-64
2023/03/12 03:06:22;;;;;;;6.10;2.60;;;;;;;1.51;56.02;100062.91;107547;1254;112523;-65
2023/03/12 03:08:51;;;;;;;4.80;2.80;;;;;;;1.51;55.97;100063.32;107432;1254;108588;-64
2023/03/12 03:11:23;;;;;;;5.90;3.00;;;;;;;1.47;55.94;100071.34;107394;1254;108131;-63
2023/03/12 03:13:54;;;;;;;3.60;2.50;;;;;;;1.45;55.94;100080.08;107432;1254;99174;-64
2023/03/12 03:16:23;;;;;;;3.00;2.30;;;;;;;1.42;55.86;100087.54;107548;1254;99713;-65
2023/03/12 03:18:51;;;;;;;6.90;2.30;;;;;;;1.38;55.67;100090.07;107338;1254;113083;-63
2023/03/12 03:21:20;;;;;;;2.90;2.10;;;;;;;1.36;55.61;100096.73;107397;1253;111041;-64
2023/03/12 03:23:49;;;;;;;2.90;2.20;;;;;;;1.34;55.49;100106.38;107461;1254;107324;-65
2023/03/12 03:26:20;;;;;;;4.70;3.00;;;;;;;1.30;55.31;100119.58;107441;1254;99258;-63
2023/03/12 03:28:49;;;;;;;6.30;3.00;;;;;;;1.27;55.30;100125.57;107535;1254;99053;-64
2023/03/12 03:31:18;;;;;;;5.60;2.90;;;;;;;1.21;55.39;100129.95;107448;1254;113616;-63
2023/03/12 03:33:47;;;;;;;5.60;3.40;;;;;;;1.16;55.37;100131.70;107497;1254;110092;-66
2023/03/12 03:36:16;;;;;;;8.50;3.10;;;;;;;1.12;55.41;100134.73;107491;1254;108712;-63
2023/03/12 03:38:54;;;;;;;5.20;2.40;;;;;;;1.10;55.37;100132.54;107443;1254;99172;-64
2023/03/12 03:41:23;;;;;;;5.80;2.40;;;;;;;1.09;55.47;100138.60;107491;1254;99726;-65
2023/03/12 03:43:57;;;;;;;4.00;2.80;;;;;;;1.09;55.65;100141.58;107448;1253;114649;-65
2023/03/12 03:46:26;;;;;;;8.70;2.60;;;;;;;1.08;55.53;100145.92;107452;1254;109072;-65
2023/03/12 03:49:00;;;;;;;4.00;2.50;;;;;;;1.02;55.67;100148.70;107395;1254;107669;-64
2023/03/12 03:51:29;;;;;;;2.30;2.00;;;;;;;1.00;55.51;100152.21;107408;1254;99247;-65
2023/03/12 03:54:02;;;;;;;5.90;2.80;;;;;;;1.01;55.62;100154.61;107443;1254;99705;-65
2023/03/12 03:56:31;;;;;;;3.80;2.30;;;;;;;1.02;55.61;100157.93;107532;1254;113979;-66
2023/03/12 03:59:00;;;;;;;7.50;2.70;;;;;;;0.99;55.69;100157.23;107538;1257;108750;-64
2023/03/12 04:01:30;;;;;;;3.50;2.20;;;;;;;1.00;55.74;100155.77;107411;1254;108289;-66
2023/03/12 04:04:00;;;;;;;5.40;2.70;;;;;;;1.02;55.71;100151.05;107463;1254;99145;-64
2023/03/12 04:06:30;;;;;;;6.00;3.20;;;;;;;1.02;55.55;100163.06;107464;1254;99719;-64
2023/03/12 04:08:59;;;;;;;4.60;2.90;;;;;;;1.01;55.80;100172.61;107454;1253;112658;-64
2023/03/12 04:11:28;;;;;;;12.10;2.70;;;;;;;1.00;56.05;100177.46;107469;1254;109739;-64
2023/03/12 04:13:57;;;;;;;4.60;2.50;;;;;;;0.99;56.14;100181.76;107494;1254;108493;-64
2023/03/12 04:16:28;;;;;;;4.90;2.80;;;;;;;0.96;56.14;100188.64;107501;1253;99269;-64
2023/03/12 04:18:58;;;;;;;10.50;3.30;;;;;;;0.94;56.09;100183.81;107486;1254;99259;-63
2023/03/12 04:21:27;;;;;;;7.10;2.40;;;;;;;0.92;56.32;100185.13;107484;1257;111886;-63
2023/03/12 04:23:56;;;;;;;6.10;2.90;;;;;;;0.91;56.53;100185.02;107505;1254;109819;-64
2023/03/12 04:26:28;;;;;;;4.80;2.50;;;;;;;0.90;56.58;100180.52;107481;1253;108239;-64
2023/03/12 04:28:59;;;;;;;4.80;2.60;;;;;;;0.89;57.05;100181.77;107459;1254;99280;-64
2023/03/12 04:31:28;;;;;;;3.80;2.60;;;;;;;0.85;56.97;100195.77;107440;1254;99093;-63
2023/03/12 04:33:57;;;;;;;4.50;2.80;;;;;;;0.81;57.15;100204.17;107491;1254;112640;-64
2023/03/12 04:36:26;;;;;;;4.60;3.00;;;;;;;0.79;57.31;100217.86;107474;1254;110777;-65
2023/03/12 04:38:55;;;;;;;5.60;2.80;;;;;;;0.77;57.43;100223.05;107472;1254;108743;-64
2023/03/12 04:41:27;;;;;;;9.90;2.90;;;;;;;0.77;57.41;100225.70;107487;1253;99167;-63
2023/03/12 04:44:15;;;;;;;6.10;3.10;;;;;;;0.75;57.70;100224.24;107538;1254;99173;-64
2023/03/12 04:46:44;;;;;;;6.60;3.90;;;;;;;0.75;57.60;100225.11;107512;1254;112845;-65
2023/03/12 04:49:15;;;;;;;6.40;3.50;;;;;;;0.73;57.85;100222.05;107409;1254;109072;-64
2023/03/12 04:51:44;;;;;;;6.40;3.80;;;;;;;0.72;57.87;100216.85;107397;1253;108574;-63
2023/03/12 04:54:12;;;;;;;10.20;3.50;;;;;;;0.72;57.95;100214.90;107523;1254;99185;-65
2023/03/12 04:56:41;;;;;;;4.60;2.80;;;;;;;0.71;58.17;100216.87;107518;1254;99179;-65
2023/03/12 04:59:12;;;;;;;5.70;3.10;;;;;;;0.73;58.07;100226.66;107539;1254;113189;-64
2023/03/12 05:01:41;;;;;;;11.00;4.10;;;;;;;0.73;57.97;100234.62;107444;1254;110052;-65
2023/03/12 05:04:14;;;;;;;8.20;3.40;;;;;;;0.69;58.10;100256.33;107374;1254;108836;-64
2023/03/12 05:06:43;;;;;;;7.80;3.30;;;;;;;0.68;57.88;100264.52;107450;1259;99189;-64
2023/03/12 05:09:11;;;;;;;6.80;3.50;;;;;;;0.70;58.02;100272.55;107483;1254;99147;-65
2023/03/12 05:11:40;;;;;;;7.40;3.70;;;;;;;0.70;58.00;100286.83;107415;1254;113434;-64
2023/03/12 05:14:11;;;;;;;7.30;4.00;;;;;;;0.70;57.77;100293.88;107496;1254;110063;-63
2023/03/12 05:16:39;;;;;;;5.90;3.50;;;;;;;0.73;58.11;100306.09;107394;1254;107847;-64
2023/03/12 05:19:08;;;;;;;8.30;3.80;;;;;;;0.73;57.83;100318.80;107435;1254;99184;-65
2023/03/12 05:21:39;;;;;;;12.20;5.50;;;;;;;0.76;57.82;100329.73;107496;1254;99048;-64
2023/03/12 05:24:09;;;;;;;7.90;4.10;;;;;;;0.78;57.57;100335.99;107417;1254;114744;-65
2023/03/12 05:26:37;;;;;;;8.10;3.70;;;;;;;0.82;57.46;100345.32;107373;1254;108982;-64
2023/03/12 05:29:11;;;;;;;5.90;3.50;;;;;;;0.84;57.41;100355.63;107441;1254;107892;-63
2023/03/12 05:31:40;;;;;;;7.80;3.00;;;;;;;0.86;57.28;100364.86;107413;1254;99172;-64
2023/03/12 05:34:12;;;;;;;9.90;4.00;;;;;;;0.93;57.24;100369.45;107521;1254;99822;-65
2023/03/12 05:36:42;;;;;;;8.50;3.90;;;;;;;0.96;57.22;100380.21;107403;1254;113546;-66
2023/03/12 05:39:11;;;;;;;4.80;2.80;;;;;;;1.03;57.15;100384.59;107429;1254;110145;-63
2023/03/12 05:41:40;;;;;;;9.50;3.30;;;;;;;1.06;56.94;100388.49;107469;1254;108641;-64
2023/03/12 05:44:14;;;;;;;6.10;2.90;;;;;;;1.12;56.59;100392.61;107406;1259;99176;-65
2023/03/12 05:46:46;;;;;;;11.70;3.90;;;;;;;1.18;56.55;100398.45;107432;1254;99708;-66
2023/03/12 05:49:14;;;;;;;4.00;2.90;;;;;;;1.23;56.27;100403.11;107538;1254;112750;-64
2023/03/12 05:51:46;;;;;;;5.50;2.90;;;;;;;1.30;56.10;100406.44;107486;1254;109794;-65
2023/03/12 05:54:17;;;;;;;4.80;2.60;;;;;;;1.33;55.71;100409.47;107478;1254;108540;-66
2023/03/12 05:56:47;;;;;;;9.40;3.60;;;;;;;1.37;55.45;100418.96;107391;1254;99208;-65
2023/03/12 05:59:15;;;;;;;4.70;3.10;;;;;;;1.40;54.95;100427.44;107433;1254;99166;-67
2023/03/12 06:01:44;;;;;;;4.10;2.40;;;;;;;1.45;54.95;100443.06;107404;1259;113606;-64
2023/03/12 06:04:13;;;;;;;8.10;3.70;;;;;;;1.50;54.70;100445.80;107506;1254;109635;-66
2023/03/12 06:06:42;;;;;;;6.60;3.30;;;;;;;1.57;54.48;100456.39;107478;1254;107951;-66
2023/03/12 06:09:11;;;;;;;5.30;2.40;;;;;;;1.61;53.63;100463.73;107339;1254;99191;-66
2023/03/12 06:11:40;;;;;;;5.90;2.40;;;;;;;1.69;53.17;100466.45;107497;1253;99207;-64
2023/03/12 06:14:09;;;;;;;6.70;2.30;;;;;;;1.73;51.73;100472.81;107360;1254;112767;-66
2023/03/12 06:16:37;;;;;;;5.70;2.40;;;;;;;1.80;51.22;100468.14;107501;1254;109958;-65
2023/03/12 06:19:07;;;;;;;8.80;2.30;;;;;;;1.89;50.51;100485.67;107532;1254;108347;-63
2023/03/12 06:21:35;;;;;;;3.00;1.90;;;;;;;1.91;49.92;100489.98;107469;1257;99057;-66
2023/03/12 06:24:06;;;;;;;3.50;1.90;;;;;;;1.93;49.15;100492.17;107519;1254;99053;-65
2023/03/12 06:27:04;;;;;;;7.30;1.80;;;;;;;1.94;48.82;100511.23;107421;1257;113582;-65
2023/03/12 06:29:32;;;;;;;6.50;1.80;;;;;;;1.92;48.77;100515.08;107540;1257;109014;-64
2023/03/12 06:32:01;;;;;;;3.60;1.90;;;;;;;1.97;49.56;100514.61;107493;1254;107992;-65
2023/03/12 06:34:30;;;;;;;6.40;1.80;;;;;;;2.03;48.77;100527.20;107520;1254;99168;-63
2023/03/12 06:36:58;;;;;;;6.30;1.70;;;;;;;2.08;48.25;100523.56;107522;1254;99724;-63
2023/03/12 06:39:28;;;;;;;3.50;1.90;;;;;;;2.13;47.07;100520.77;107510;1254;113546;-64
2023/03/12 06:41:57;;;;;;;5.10;1.70;;;;;;;2.23;47.17;100529.23;107393;1254;110108;-65
2023/03/12 06:44:25;;;;;;;9.40;1.60;;;;;;;2.33;46.90;100533.45;107498;1257;108412;-66
2023/03/12 06:46:54;;;;;;;2.30;1.50;;;;;;;2.43;46.31;100530.55;107477;1254;99166;-65
2023/03/12 06:49:22;;;;;;;2.60;1.70;;;;;;;2.50;46.03;100528.20;107518;1254;99171;-64
2023/03/12 06:51:51;;;;;;;5.40;2.00;;;;;;;2.54;45.44;100539.66;107532;1254;112850;-67
2023/03/12 06:54:19;;;;;;;3.40;1.80;;;;;;;2.60;45.00;100531.90;107544;1253;109682;-64
2023/03/12 06:56:48;;;;;;;3.90;1.80;;;;;;;2.65;44.22;100540.92;107520;1253;108205;-64
2023/03/12 06:59:20;;;;;;;5.30;2.10;;;;;;;2.69;43.94;100545.89;107508;1254;99295;-64
2023/03/12 07:01:49;;;;;;;2.10;1.40;;;;;;;2.77;43.94;100553.55;107563;1254;99064;-66
2023/03/12 07:04:17;;;;;;;3.20;1.50;;;;;;;2.82;44.04;100556.56;107497;1254;112792;-64
2023/03/12 07:06:49;;;;;;;3.20;1.90;;;;;;;2.83;43.61;100567.17;107534;1254;109827;-65
2023/03/12 07:09:18;;;;;;;2.90;1.80;;;;;;;2.85;44.14;100569.18;107480;1254;108633;-63
2023/03/12 07:11:46;;;;;;;2.40;1.70;;;;;;;2.81;43.87;100585.40;107543;1254;99276;-66
2023/03/12 07:14:15;;;;;;;9.70;1.80;;;;;;;2.79;44.44;100588.67;107527;1254;99182;-65
2023/03/12 07:16:43;;;;;;;5.30;2.30;;;;;;;2.78;44.03;100606.75;107531;1254;113576;-65
2023/03/12 07:19:12;;;;;;;5.20;2.60;;;;;;;2.76;43.65;100605.16;107548;1254;109875;-64
2023/03/12 07:21:40;;;;;;;4.90;1.90;;;;;;;2.79;43.61;100604.27;107500;1257;109853;-64
2023/03/12 07:24:08;;;;;;;3.50;2.20;;;;;;;2.86;43.71;100602.09;107539;1254;99181;-63
2023/03/12 07:26:37;;;;;;;6.40;2.90;;;;;;;2.89;43.02;100606.15;107492;1254;99723;-66
2023/03/12 07:29:05;;;;;;;5.20;1.80;;;;;;;2.96;43.03;100607.30;107516;1254;112545;-64
2023/03/12 07:31:34;;;;;;;7.90;2.60;;;;;;;3.01;42.01;100607.77;107531;1254;109808;-64
2023/03/12 07:34:04;;;;;;;6.60;2.60;;;;;;;3.06;42.71;100612.79;107542;1254;107705;-66
2023/03/12 07:36:34;;;;;;;8.70;2.60;;;;;;;3.16;42.42;100618.88;107553;1254;99285;-65
2023/03/12 07:39:03;;;;;;;5.60;2.20;;;;;;;3.26;42.61;100625.06;107385;1254;99243;-64
2023/03/12 07:41:32;;;;;;;4.40;1.80;;;;;;;3.34;41.92;100630.61;107550;1254;113132;-65
2023/03/12 07:44:00;;;;;;;9.70;1.80;;;;;;;3.35;40.87;100629.84;107517;1254;109621;-65
2023/03/12 07:46:28;;;;;;;8.50;3.10;;;;;;;3.39;40.66;100632.77;107529;1254;106802;-64
2023/03/12 07:48:57;;;;;;;7.80;2.50;;;;;;;3.35;40.80;100641.49;107564;1254;99064;-64
2023/03/12 07:51:26;;;;;;;5.60;2.40;;;;;;;3.36;41.50;100632.06;107515;1256;99137;-68
2023/03/12 07:53:54;;;;;;;4.00;2.30;;;;;;;3.37;42.04;100636.80;107462;1257;113079;-65
2023/03/12 07:56:23;;;;;;;6.20;2.10;;;;;;;3.33;42.32;100637.60;107541;1254;109676;-64
2023/03/12 07:58:52;;;;;;;6.00;2.00;;;;;;;3.31;42.44;100638.93;107562;1253;107506;-64
2023/03/12 08:01:21;;;;;;;5.90;2.50;;;;;;;3.34;42.36;100638.02;107556;1254;99071;-63
2023/03/12 08:03:50;;;;;;;8.40;3.20;;;;;;;3.36;42.12;100642.88;107366;1254;99067;-64
2023/03/12 08:06:18;;;;;;;6.50;2.50;;;;;;;3.48;43.17;100644.25;107432;1254;113553;-65
2023/03/12 08:08:47;;;;;;;8.30;2.60;;;;;;;3.64;43.25;100658.91;107419;1255;109709;-65
2023/03/12 08:11:16;;;;;;;4.70;2.40;;;;;;;3.77;42.99;100655.48;107411;1257;109679;-68
2023/03/12 08:13:44;;;;;;;7.00;2.40;;;;;;;3.73;42.37;100665.65;107391;1256;99147;-65
2023/03/12 08:16:13;;;;;;;9.90;2.30;;;;;;;3.57;42.40;100674.27;107426;1255;99182;-64
2023/03/12 08:18:42;;;;;;;5.00;2.30;;;;;;;3.40;43.05;100677.38;107449;1256;112494;-63
2023/03/12 08:21:10;;;;;;;5.90;2.00;;;;;;;3.29;43.15;100691.89;107354;1255;109079;-65
2023/03/12 08:23:40;;;;;;;4.90;2.00;;;;;;;3.18;43.17;100687.89;107410;1257;108172;-64
2023/03/12 08:26:08;;;;;;;9.00;3.10;;;;;;;3.24;43.09;100691.83;107413;1257;99169;-64
2023/03/12 08:28:37;;;;;;;11.70;2.60;;;;;;;3.30;43.33;100695.56;107395;1254;99166;-65
2023/03/12 08:31:05;;;;;;;6.00;2.40;;;;;;;3.53;43.17;100692.20;107443;1257;114102;-64
2023/03/12 08:33:35;;;;;;;10.60;2.60;;;;;;;3.67;42.49;100704.34;107429;1257;109831;-65
2023/03/12 08:36:04;;;;;;;7.10;2.20;;;;;;;3.82;42.29;100703.61;107339;1257;107317;-65
2023/03/12 08:38:32;;;;;;;21.00;3.20;;;;;;;3.96;42.21;100707.73;107422;1255;99185;-63
2023/03/12 08:41:01;;;;;;;16.70;3.50;;;;;;;3.98;41.55;100717.73;107411;1254;99252;-64
2023/03/12 08:43:29;;;;;;;11.20;2.40;;;;;;;4.02;42.06;100709.64;107411;1257;112713;-65
2023/03/12 08:46:00;;;;;;;32.00;2.40;;;;;;;4.06;41.37;100722.16;107378;1257;110086;-64
2023/03/12 08:48:30;;;;;;;19.50;3.60;;;;;;;4.07;40.83;100722.63;107421;1255;106542;-65
2023/03/12 08:51:02;;;;;;;5.60;2.50;;;;;;;4.20;41.18;100726.08;107441;1257;99180;-65
2023/03/12 08:53:32;;;;;;;8.40;2.60;;;;;;;4.47;40.50;100718.37;107426;1259;99056;-65
2023/03/12 08:56:02;;;;;;;3.70;2.30;;;;;;;4.69;39.83;100722.10;107418;1256;113232;-65
2023/03/12 08:58:31;;;;;;;13.20;2.50;;;;;;;4.85;39.10;100732.67;107454;1257;110175;-64
2023/03/12 09:00:59;;;;;;;14.20;4.20;;;;;;;5.19;38.67;100722.56;107426;1257;108301;-67
2023/03/12 09:03:27;;;;;;;19.70;2.40;;;;;;;5.29;37.78;100741.86;107425;1254;99199;-64
2023/03/12 09:06:15;;;;;;;18.60;3.80;;;;;;;5.19;38.28;100749.98;107600;1254;99057;-66
2023/03/12 09:08:45;;;;;;;7.80;3.40;;;;;;;5.50;38.39;100746.87;107561;1254;113892;-66
2023/03/12 09:11:14;;;;;;;5.50;2.60;;;;;;;5.64;38.59;100749.95;107588;1254;110000;-65
2023/03/12 09:13:43;;;;;;;16.60;2.80;;;;;;;5.67;38.06;100757.10;107442;1254;108659;-64
2023/03/12 09:16:32;;;;;;;10.30;3.00;;;;;;;5.87;37.02;100753.77;107400;1257;99185;-67
2023/03/12 09:19:00;;;;;;;11.50;2.00;;;;;;;6.18;37.13;100760.23;107499;1254;99712;-65
2023/03/12 09:21:29;;;;;;;5.30;1.90;;;;;;;6.67;36.06;100759.27;107454;1254;113257;-65
2023/03/12 09:23:58;;;;;;;7.40;1.90;;;;;;;6.99;34.24;100759.55;107442;1254;109100;-66
2023/03/12 09:26:26;;;;;;;4.10;1.50;;;;;;;7.43;34.06;100765.62;107461;1256;108080;-65
2023/03/12 09:28:56;;;;;;;7.20;2.00;;;;;;;7.91;32.69;100752.67;107415;1257;99250;-65
2023/03/12 09:31:25;;;;;;;10.60;2.40;;;;;;;8.04;32.47;100756.82;107439;1256;99222;-67
2023/03/12 09:33:53;;;;;;;8.80;2.30;;;;;;;8.78;32.84;100761.09;107485;1256;113717;-65
2023/03/12 09:36:22;;;;;;;8.80;2.40;;;;;;;9.25;31.28;100765.09;107475;1258;109666;-66
2023/03/12 09:38:50;;;;;;;11.10;2.50;;;;;;;9.56;30.24;100763.57;107465;1259;109388;-65
2023/03/12 09:41:24;;;;;;;4.60;1.90;;;;;;;10.01;29.77;100764.22;107531;1254;99099;-67
2023/03/12 09:44:03;;;;;;;6.60;1.80;;;;;;;10.88;30.25;100760.20;107554;1254;99263;-67
2023/03/12 09:46:39;;;;;;;8.80;2.10;;;;;;;11.77;29.81;100759.53;107546;1254;113210;-66
2023/03/12 09:49:22;;;;;;;5.80;2.20;;;;;;;12.34;27.40;100767.64;107542;1254;111071;-67
2023/03/12 09:51:55;;;;;;;5.20;2.00;;;;;;;12.16;25.81;100777.61;107549;1253;108434;-66
2023/03/12 09:54:37;;;;;;;10.30;2.00;;;;;;;12.42;26.27;100772.77;106999;1254;727947;-67
2023/03/12 09:57:11;;;;;;;12.90;2.10;;;;;;;12.79;26.16;100774.08;107563;1258;99359;-66
2023/03/12 09:59:40;;;;;;;6.50;1.80;;;;;;;13.33;25.84;100771.27;107566;1253;113681;-66
2023/03/12 10:02:43;;;;;;;11.70;2.60;;;;;;;13.64;24.82;100774.41;107568;1254;109070;-66
2023/03/12 10:05:43;;;;;;;12.70;2.10;;;;;;;13.46;24.70;100767.36;107529;1254;107950;-66
2023/03/12 10:08:45;;;;;;;4.30;1.80;;;;;;;13.39;24.75;100771.84;107589;1259;99170;-66
2023/03/12 10:11:22;;;;;;;4.70;2.00;;;;;;;13.23;24.71;100768.16;107572;1254;99712;-66
2023/03/12 10:13:53;;;;;;;8.30;2.60;;;;;;;13.55;24.96;100768.05;107556;1254;113334;-67
2023/03/12 10:16:35;;;;;;;6.30;2.10;;;;;;;14.22;24.97;100767.68;107526;1253;109764;-65
2023/03/12 10:19:16;;;;;;;2.70;1.70;;;;;;;15.05;24.10;100761.74;107530;1254;108481;-66
2023/03/12 10:21:55;;;;;;;5.80;2.60;;;;;;;15.33;22.84;100764.14;107527;1258;99159;-67
2023/03/12 10:24:44;;;;;;;7.50;2.20;;;;;;;14.80;22.31;100768.48;107562;1254;99143;-66
2023/03/12 10:27:17;;;;;;;4.00;2.20;;;;;;;14.14;23.25;100764.73;107573;1254;113228;-66
2023/03/12 10:29:49;;;;;;;9.20;2.00;;;;;;;14.29;23.70;100764.05;107579;1254;110323;-64
2023/03/12 10:32:30;;;;;;;8.30;2.20;;;;;;;15.11;24.36;100759.05;107449;1257;107716;-67
2023/03/12 10:35:03;;;;;;;10.80;2.20;;;;;;;16.01;23.02;100763.97;107434;1256;99070;-66
2023/03/12 10:37:38;;;;;;;6.50;2.20;;;;;;;16.05;21.94;100762.80;107470;1254;99068;-66
2023/03/12 10:40:16;;;;;;;7.20;1.70;;;;;;;15.99;22.17;100757.83;107412;1254;113817;-66
2023/03/12 10:42:44;;;;;;;11.40;2.50;;;;;;;16.58;21.94;100754.23;107489;1258;109996;-68
2023/03/12 10:45:46;;;;;;;4.90;1.40;;;;;;;16.94;21.95;100763.79;107435;1258;107789;-67
2023/03/12 10:48:21;;;;;;;6.60;2.50;;;;;;;17.52;21.40;100761.75;107446;1257;99169;-66
2023/03/12 10:51:00;;;;;;;4.60;1.50;;;;;;;17.84;20.64;100761.54;107465;1254;99830;-66
2023/03/12 10:53:31;;;;;;;4.20;2.00;;;;;;;18.21;19.87;100762.46;107430;1258;113350;-66
2023/03/12 10:56:05;;;;;;;2.00;1.40;;;;;;;18.08;20.21;100763.41;107503;1254;110140;-67
2023/03/12 10:58:43;;;;;;;3.90;1.70;;;;;;;17.95;19.27;100766.62;107563;1254;107392;-66
2023/03/12 11:01:14;;;;;;;2.80;1.90;;;;;;;17.62;19.31;100760.04;107382;1254;99314;-66
2023/03/12 11:03:44;;;;;;;5.00;1.90;;;;;;;17.69;20.47;100752.03;107436;1257;99118;-65
2023/03/12 11:06:39;;;;;;;3.20;1.30;;;;;;;18.42;19.75;100750.45;107477;1254;113728;-67
2023/03/12 11:09:18;;;;;;;6.30;1.60;;;;;;;18.59;19.14;100755.57;107381;1257;110561;-65
2023/03/12 11:11:49;;;;;;;2.60;1.70;;;;;;;18.85;19.14;100758.82;107466;1254;108758;-66
2023/03/12 11:14:22;;;;;;;2.90;1.70;;;;;;;19.22;19.44;100756.71;107520;1254;99159;-68
2023/03/12 11:16:52;;;;;;;5.00;1.80;;;;;;;19.46;18.10;100760.27;107549;1254;99175;-66
2023/03/12 11:19:34;;;;;;;4.70;2.10;;;;;;;19.50;18.56;100756.31;107531;1259;113422;-66
2023/03/12 11:22:07;;;;;;;2.90;1.60;;;;;;;19.61;18.48;100752.71;107557;1258;109085;-66
2023/03/12 11:24:35;;;;;;;8.90;2.10;;;;;;;19.77;17.98;100745.60;107488;1259;108741;-67
2023/03/12 11:27:29;;;;;;;6.10;1.60;;;;;;;19.59;18.24;100752.65;107499;1254;99197;-66
2023/03/12 11:29:59;;;;;;;4.60;1.50;;;;;;;19.37;18.95;100752.33;107534;1254;99789;-65
2023/03/12 11:32:41;;;;;;;2.80;1.50;;;;;;;18.72;18.37;100745.88;107565;1254;113335;-66
2023/03/12 11:35:11;;;;;;;2.00;1.20;;;;;;;18.51;19.06;100747.37;107570;1255;109539;-67
2023/03/12 11:37:43;;;;;;;7.90;1.90;;;;;;;18.34;18.93;100751.45;107553;1254;108593;-66
2023/03/12 11:40:18;;;;;;;3.60;1.40;;;;;;;18.23;18.62;100751.23;107520;1254;100309;-66